sensor_id;sensor_type;location;lat;lon;timestamp;P1;durP1;ratioP1;P2;durP2;ratioP2
25435;SDS011;13363;52.772;-3.890;2023-07-31T00:01:50;11.67;;;2.50;;
25435;SDS011;13363;52.772;-3.890;2023-07-31T00:04:16;7.03;;;2.53;;
25435;SDS011;13363;52.772;-3.890;2023-07-31T00:06:41;7.27;;;2.93;;
25435;SDS011;13363;52.772;-3.890;2023-07-31T00:09:07;9.83;;;3.00;;
25435;SDS011;13363;52.772;-3.890;2023-07-31T00:11:33;10.00;;;2.93;;
25435;SDS011;13363;52.772;-3.890;2023-07-31T00:13:59;9.97;;;3.00;;
25435;SDS011;13363;52.772;-3.890;2023-07-31T00:16:25;11.37;;;3.07;;
25435;SDS011;13363;52.772;-3.890;2023-07-31T00:18:51;13.03;;;2.80;;
25435;SDS011;13363;52.772;-3.890;2023-07-31T00:21:16;12.10;;;3.27;;
25435;SDS011;13363;52.772;-3.890;2023-07-31T00:23:42;14.60;;;3.30;;
25435;SDS011;13363;52.772;-3.890;2023-07-31T00:26:08;15.17;;;3.53;;
25435;SDS011;13363;52.772;-3.890;2023-07-31T00:28:34;12.20;;;3.63;;
25435;SDS011;13363;52.772;-3.890;2023-07-31T00:31:00;9.50;;;2.30;;
25435;SDS011;13363;52.772;-3.890;2023-07-31T00:33:27;9.63;;;2.90;;
25435;SDS011;13363;52.772;-3.890;2023-07-31T00:35:52;12.00;;;2.67;;
25435;SDS011;13363;52.772;-3.890;2023-07-31T00:38:18;9.53;;;2.90;;
25435;SDS011;13363;52.772;-3.890;2023-07-31T00:40:44;11.00;;;2.80;;
25435;SDS011;13363;52.772;-3.890;2023-07-31T00:43:10;9.90;;;2.93;;
25435;SDS011;13363;52.772;-3.890;2023-07-31T00:45:35;10.20;;;3.03;;
25435;SDS011;13363;52.772;-3.890;2023-07-31T00:48:02;13.57;;;3.17;;
25435;SDS011;13363;52.772;-3.890;2023-07-31T00:50:28;9.10;;;2.87;;
25435;SDS011;13363;52.772;-3.890;2023-07-31T00:52:54;10.27;;;3.70;;
25435;SDS011;13363;52.772;-3.890;2023-07-31T00:55:20;18.63;;;3.27;;
25435;SDS011;13363;52.772;-3.890;2023-07-31T00:57:46;9.13;;;3.23;;
25435;SDS011;13363;52.772;-3.890;2023-07-31T01:00:14;17.67;;;3.43;;
25435;SDS011;13363;52.772;-3.890;2023-07-31T01:02:40;12.43;;;4.03;;
25435;SDS011;13363;52.772;-3.890;2023-07-31T01:05:06;12.67;;;4.23;;
25435;SDS011;13363;52.772;-3.890;2023-07-31T01:10:28;12.10;;;3.90;;
25435;SDS011;13363;52.772;-3.890;2023-07-31T01:12:59;10.93;;;3.77;;
25435;SDS011;13363;52.772;-3.890;2023-07-31T01:15:27;17.50;;;4.40;;
25435;SDS011;13363;52.772;-3.890;2023-07-31T01:17:53;15.27;;;5.03;;
25435;SDS011;13363;52.772;-3.890;2023-07-31T01:28:30;17.47;;;5.20;;
25435;SDS011;13363;52.772;-3.890;2023-07-31T01:30:58;22.53;;;4.80;;
25435;SDS011;13363;52.772;-3.890;2023-07-31T01:33:27;19.70;;;5.73;;
25435;SDS011;13363;52.772;-3.890;2023-07-31T01:35:53;18.47;;;5.53;;
25435;SDS011;13363;52.772;-3.890;2023-07-31T01:38:21;17.50;;;5.10;;
25435;SDS011;13363;52.772;-3.890;2023-07-31T01:40:50;23.37;;;5.73;;
25435;SDS011;13363;52.772;-3.890;2023-07-31T01:43:17;17.13;;;5.30;;
25435;SDS011;13363;52.772;-3.890;2023-07-31T01:45:43;17.30;;;5.27;;
25435;SDS011;13363;52.772;-3.890;2023-07-31T01:48:12;17.87;;;6.07;;
25435;SDS011;13363;52.772;-3.890;2023-07-31T01:50:38;31.50;;;6.83;;
25435;SDS011;13363;52.772;-3.890;2023-07-31T01:53:04;12.70;;;4.70;;
25435;SDS011;13363;52.772;-3.890;2023-07-31T01:55:30;20.53;;;6.50;;
25435;SDS011;13363;52.772;-3.890;2023-07-31T01:57:55;27.23;;;6.87;;
25435;SDS011;13363;52.772;-3.890;2023-07-31T02:00:21;25.33;;;7.10;;
25435;SDS011;13363;52.772;-3.890;2023-07-31T02:02:47;27.23;;;7.73;;
25435;SDS011;13363;52.772;-3.890;2023-07-31T02:05:13;26.27;;;7.07;;
25435;SDS011;13363;52.772;-3.890;2023-07-31T02:07:39;29.33;;;7.17;;
25435;SDS011;13363;52.772;-3.890;2023-07-31T02:10:04;29.43;;;7.80;;
25435;SDS011;13363;52.772;-3.890;2023-07-31T02:12:31;26.63;;;8.23;;
25435;SDS011;13363;52.772;-3.890;2023-07-31T02:14:57;19.77;;;6.50;;
25435;SDS011;13363;52.772;-3.890;2023-07-31T02:17:23;38.73;;;8.13;;
25435;SDS011;13363;52.772;-3.890;2023-07-31T02:19:48;35.73;;;8.80;;
25435;SDS011;13363;52.772;-3.890;2023-07-31T02:22:14;28.97;;;9.37;;
25435;SDS011;13363;52.772;-3.890;2023-07-31T02:24:40;26.00;;;8.77;;
25435;SDS011;13363;52.772;-3.890;2023-07-31T02:27:06;35.60;;;9.83;;
25435;SDS011;13363;52.772;-3.890;2023-07-31T02:29:32;35.13;;;8.93;;
25435;SDS011;13363;52.772;-3.890;2023-07-31T02:31:57;34.97;;;9.57;;
25435;SDS011;13363;52.772;-3.890;2023-07-31T02:34:23;33.63;;;9.80;;
25435;SDS011;13363;52.772;-3.890;2023-07-31T02:36:49;33.37;;;8.73;;
25435;SDS011;13363;52.772;-3.890;2023-07-31T02:39:15;35.20;;;9.23;;
25435;SDS011;13363;52.772;-3.890;2023-07-31T02:41:41;29.63;;;8.27;;
25435;SDS011;13363;52.772;-3.890;2023-07-31T02:44:06;28.20;;;7.93;;
25435;SDS011;13363;52.772;-3.890;2023-07-31T02:46:32;38.50;;;9.63;;
25435;SDS011;13363;52.772;-3.890;2023-07-31T02:48:58;39.63;;;8.87;;
25435;SDS011;13363;52.772;-3.890;2023-07-31T02:51:24;31.17;;;9.90;;
25435;SDS011;13363;52.772;-3.890;2023-07-31T02:53:50;36.03;;;10.13;;
25435;SDS011;13363;52.772;-3.890;2023-07-31T02:56:15;41.23;;;9.20;;
25435;SDS011;13363;52.772;-3.890;2023-07-31T02:58:41;31.40;;;8.83;;
25435;SDS011;13363;52.772;-3.890;2023-07-31T03:01:07;33.43;;;8.53;;
25435;SDS011;13363;52.772;-3.890;2023-07-31T03:03:33;44.60;;;9.10;;
25435;SDS011;13363;52.772;-3.890;2023-07-31T03:05:59;25.33;;;8.47;;
25435;SDS011;13363;52.772;-3.890;2023-07-31T03:08:25;26.13;;;8.40;;
25435;SDS011;13363;52.772;-3.890;2023-07-31T03:10:50;27.30;;;9.50;;
25435;SDS011;13363;52.772;-3.890;2023-07-31T03:13:16;23.37;;;8.43;;
25435;SDS011;13363;52.772;-3.890;2023-07-31T03:15:42;22.37;;;7.87;;
25435;SDS011;13363;52.772;-3.890;2023-07-31T03:18:08;26.97;;;8.87;;
25435;SDS011;13363;52.772;-3.890;2023-07-31T03:20:34;27.47;;;6.93;;
25435;SDS011;13363;52.772;-3.890;2023-07-31T03:23:00;27.77;;;8.23;;
25435;SDS011;13363;52.772;-3.890;2023-07-31T03:25:26;27.00;;;8.43;;
25435;SDS011;13363;52.772;-3.890;2023-07-31T03:27:52;27.73;;;8.43;;
25435;SDS011;13363;52.772;-3.890;2023-07-31T03:30:18;24.73;;;8.23;;
25435;SDS011;13363;52.772;-3.890;2023-07-31T03:32:43;28.80;;;7.97;;
25435;SDS011;13363;52.772;-3.890;2023-07-31T03:35:09;24.97;;;8.40;;
25435;SDS011;13363;52.772;-3.890;2023-07-31T03:37:35;31.63;;;9.37;;
25435;SDS011;13363;52.772;-3.890;2023-07-31T03:40:01;29.20;;;8.60;;
25435;SDS011;13363;52.772;-3.890;2023-07-31T03:42:27;10.57;;;4.63;;
25435;SDS011;13363;52.772;-3.890;2023-07-31T03:44:53;26.67;;;7.57;;
25435;SDS011;13363;52.772;-3.890;2023-07-31T03:47:19;23.90;;;7.17;;
25435;SDS011;13363;52.772;-3.890;2023-07-31T03:49:44;21.87;;;7.10;;
25435;SDS011;13363;52.772;-3.890;2023-07-31T03:52:10;23.57;;;7.90;;
25435;SDS011;13363;52.772;-3.890;2023-07-31T03:54:36;25.07;;;7.20;;
25435;SDS011;13363;52.772;-3.890;2023-07-31T03:57:02;29.70;;;8.07;;
25435;SDS011;13363;52.772;-3.890;2023-07-31T03:59:28;14.07;;;4.70;;
25435;SDS011;13363;52.772;-3.890;2023-07-31T04:01:54;19.93;;;6.37;;
25435;SDS011;13363;52.772;-3.890;2023-07-31T04:04:19;8.73;;;3.83;;
25435;SDS011;13363;52.772;-3.890;2023-07-31T04:06:45;23.47;;;6.73;;
25435;SDS011;13363;52.772;-3.890;2023-07-31T04:09:11;18.00;;;6.10;;
25435;SDS011;13363;52.772;-3.890;2023-07-31T04:11:37;23.13;;;6.57;;
25435;SDS011;13363;52.772;-3.890;2023-07-31T04:14:04;21.93;;;4.73;;
25435;SDS011;13363;52.772;-3.890;2023-07-31T04:16:30;28.67;;;6.63;;
25435;SDS011;13363;52.772;-3.890;2023-07-31T04:18:55;21.63;;;5.97;;
25435;SDS011;13363;52.772;-3.890;2023-07-31T04:21:21;27.63;;;5.83;;
25435;SDS011;13363;52.772;-3.890;2023-07-31T04:23:47;15.07;;;5.27;;
25435;SDS011;13363;52.772;-3.890;2023-07-31T04:26:13;23.87;;;6.17;;
25435;SDS011;13363;52.772;-3.890;2023-07-31T04:28:39;27.60;;;6.43;;
25435;SDS011;13363;52.772;-3.890;2023-07-31T04:31:04;25.07;;;7.03;;
25435;SDS011;13363;52.772;-3.890;2023-07-31T04:33:30;14.43;;;5.60;;
25435;SDS011;13363;52.772;-3.890;2023-07-31T04:35:57;24.53;;;6.30;;
25435;SDS011;13363;52.772;-3.890;2023-07-31T04:38:23;17.37;;;6.17;;
25435;SDS011;13363;52.772;-3.890;2023-07-31T04:40:49;20.67;;;6.17;;
25435;SDS011;13363;52.772;-3.890;2023-07-31T04:43:15;17.00;;;5.57;;
25435;SDS011;13363;52.772;-3.890;2023-07-31T04:45:42;32.93;;;7.57;;
25435;SDS011;13363;52.772;-3.890;2023-07-31T04:48:12;12.80;;;4.53;;
25435;SDS011;13363;52.772;-3.890;2023-07-31T04:50:38;13.73;;;5.30;;
25435;SDS011;13363;52.772;-3.890;2023-07-31T04:53:04;22.13;;;6.67;;
25435;SDS011;13363;52.772;-3.890;2023-07-31T04:55:30;22.77;;;6.10;;
25435;SDS011;13363;52.772;-3.890;2023-07-31T04:57:55;20.63;;;6.10;;
25435;SDS011;13363;52.772;-3.890;2023-07-31T05:00:22;22.13;;;6.37;;
25435;SDS011;13363;52.772;-3.890;2023-07-31T05:02:48;18.27;;;7.00;;
25435;SDS011;13363;52.772;-3.890;2023-07-31T05:05:14;26.80;;;7.23;;
25435;SDS011;13363;52.772;-3.890;2023-07-31T05:07:40;24.20;;;5.73;;
25435;SDS011;13363;52.772;-3.890;2023-07-31T05:10:06;16.17;;;6.13;;
25435;SDS011;13363;52.772;-3.890;2023-07-31T05:12:32;21.70;;;5.57;;
25435;SDS011;13363;52.772;-3.890;2023-07-31T05:14:58;17.33;;;5.67;;
25435;SDS011;13363;52.772;-3.890;2023-07-31T05:17:23;15.47;;;5.43;;
25435;SDS011;13363;52.772;-3.890;2023-07-31T05:19:49;16.83;;;5.33;;
25435;SDS011;13363;52.772;-3.890;2023-07-31T05:22:15;15.03;;;5.60;;
25435;SDS011;13363;52.772;-3.890;2023-07-31T05:24:41;13.27;;;5.40;;
25435;SDS011;13363;52.772;-3.890;2023-07-31T05:27:07;14.70;;;4.30;;
25435;SDS011;13363;52.772;-3.890;2023-07-31T05:29:33;15.90;;;5.17;;
25435;SDS011;13363;52.772;-3.890;2023-07-31T05:31:59;9.77;;;4.63;;
25435;SDS011;13363;52.772;-3.890;2023-07-31T05:34:24;14.80;;;4.30;;
25435;SDS011;13363;52.772;-3.890;2023-07-31T05:36:50;17.63;;;5.50;;
25435;SDS011;13363;52.772;-3.890;2023-07-31T05:39:16;12.43;;;5.03;;
25435;SDS011;13363;52.772;-3.890;2023-07-31T05:41:44;10.17;;;4.47;;
25435;SDS011;13363;52.772;-3.890;2023-07-31T05:44:10;19.10;;;5.40;;
25435;SDS011;13363;52.772;-3.890;2023-07-31T05:46:36;10.67;;;4.57;;
25435;SDS011;13363;52.772;-3.890;2023-07-31T05:49:02;12.30;;;4.40;;
25435;SDS011;13363;52.772;-3.890;2023-07-31T05:51:28;12.67;;;4.33;;
25435;SDS011;13363;52.772;-3.890;2023-07-31T05:53:54;11.03;;;4.87;;
25435;SDS011;13363;52.772;-3.890;2023-07-31T05:56:20;7.20;;;4.13;;
25435;SDS011;13363;52.772;-3.890;2023-07-31T05:58:45;13.50;;;4.97;;
25435;SDS011;13363;52.772;-3.890;2023-07-31T06:01:12;19.60;;;5.00;;
25435;SDS011;13363;52.772;-3.890;2023-07-31T06:03:37;16.33;;;4.93;;
25435;SDS011;13363;52.772;-3.890;2023-07-31T06:06:03;13.83;;;4.97;;
25435;SDS011;13363;52.772;-3.890;2023-07-31T06:08:29;14.80;;;4.50;;
25435;SDS011;13363;52.772;-3.890;2023-07-31T06:10:55;16.73;;;5.47;;
25435;SDS011;13363;52.772;-3.890;2023-07-31T06:13:21;16.37;;;4.90;;
25435;SDS011;13363;52.772;-3.890;2023-07-31T06:15:47;15.47;;;5.07;;
25435;SDS011;13363;52.772;-3.890;2023-07-31T06:18:13;16.27;;;4.43;;
25435;SDS011;13363;52.772;-3.890;2023-07-31T06:20:38;15.47;;;4.97;;
25435;SDS011;13363;52.772;-3.890;2023-07-31T06:23:05;14.73;;;4.90;;
25435;SDS011;13363;52.772;-3.890;2023-07-31T06:25:31;16.23;;;5.63;;
25435;SDS011;13363;52.772;-3.890;2023-07-31T06:27:57;13.00;;;4.70;;
25435;SDS011;13363;52.772;-3.890;2023-07-31T06:30:23;15.97;;;5.50;;
25435;SDS011;13363;52.772;-3.890;2023-07-31T06:32:49;18.83;;;5.33;;
25435;SDS011;13363;52.772;-3.890;2023-07-31T06:35:14;14.97;;;5.10;;
25435;SDS011;13363;52.772;-3.890;2023-07-31T06:37:40;14.73;;;4.80;;
25435;SDS011;13363;52.772;-3.890;2023-07-31T06:40:09;15.70;;;4.50;;
25435;SDS011;13363;52.772;-3.890;2023-07-31T06:42:35;17.63;;;5.57;;
25435;SDS011;13363;52.772;-3.890;2023-07-31T06:45:03;20.67;;;5.37;;
25435;SDS011;13363;52.772;-3.890;2023-07-31T06:47:29;17.87;;;4.77;;
25435;SDS011;13363;52.772;-3.890;2023-07-31T06:49:55;18.90;;;4.93;;
25435;SDS011;13363;52.772;-3.890;2023-07-31T06:52:21;12.70;;;4.80;;
25435;SDS011;13363;52.772;-3.890;2023-07-31T06:57:45;16.73;;;4.90;;
25435;SDS011;13363;52.772;-3.890;2023-07-31T07:00:12;14.60;;;4.70;;
25435;SDS011;13363;52.772;-3.890;2023-07-31T07:02:38;12.53;;;5.13;;
25435;SDS011;13363;52.772;-3.890;2023-07-31T07:05:04;23.30;;;5.53;;
25435;SDS011;13363;52.772;-3.890;2023-07-31T07:07:31;16.53;;;5.27;;
25435;SDS011;13363;52.772;-3.890;2023-07-31T07:09:57;16.93;;;5.43;;
25435;SDS011;13363;52.772;-3.890;2023-07-31T07:12:29;14.77;;;5.03;;
25435;SDS011;13363;52.772;-3.890;2023-07-31T07:14:57;20.30;;;5.00;;
25435;SDS011;13363;52.772;-3.890;2023-07-31T07:17:29;19.03;;;5.97;;
25435;SDS011;13363;52.772;-3.890;2023-07-31T07:20:00;18.23;;;5.27;;
25435;SDS011;13363;52.772;-3.890;2023-07-31T07:22:30;24.93;;;6.43;;
25435;SDS011;13363;52.772;-3.890;2023-07-31T07:25:03;19.23;;;5.73;;
25435;SDS011;13363;52.772;-3.890;2023-07-31T07:27:34;13.07;;;5.30;;
25435;SDS011;13363;52.772;-3.890;2023-07-31T07:30:01;24.20;;;5.87;;
25435;SDS011;13363;52.772;-3.890;2023-07-31T07:32:27;26.10;;;5.67;;
25435;SDS011;13363;52.772;-3.890;2023-07-31T07:34:54;17.30;;;4.33;;
25435;SDS011;13363;52.772;-3.890;2023-07-31T07:37:21;19.43;;;5.20;;
25435;SDS011;13363;52.772;-3.890;2023-07-31T07:39:47;19.67;;;5.57;;
25435;SDS011;13363;52.772;-3.890;2023-07-31T07:42:13;19.43;;;5.23;;
25435;SDS011;13363;52.772;-3.890;2023-07-31T07:44:38;16.23;;;4.87;;
25435;SDS011;13363;52.772;-3.890;2023-07-31T07:47:04;15.43;;;5.33;;
25435;SDS011;13363;52.772;-3.890;2023-07-31T07:49:33;16.10;;;5.60;;
25435;SDS011;13363;52.772;-3.890;2023-07-31T07:52:00;15.63;;;5.33;;
25435;SDS011;13363;52.772;-3.890;2023-07-31T07:54:26;18.57;;;6.07;;
25435;SDS011;13363;52.772;-3.890;2023-07-31T07:56:52;17.87;;;5.53;;
25435;SDS011;13363;52.772;-3.890;2023-07-31T07:59:18;18.77;;;5.47;;
25435;SDS011;13363;52.772;-3.890;2023-07-31T08:01:45;15.90;;;4.80;;
25435;SDS011;13363;52.772;-3.890;2023-07-31T08:04:11;20.90;;;5.67;;
25435;SDS011;13363;52.772;-3.890;2023-07-31T08:06:37;23.87;;;6.17;;
25435;SDS011;13363;52.772;-3.890;2023-07-31T08:09:03;15.27;;;4.53;;
25435;SDS011;13363;52.772;-3.890;2023-07-31T08:11:31;14.90;;;5.17;;
25435;SDS011;13363;52.772;-3.890;2023-07-31T08:13:57;14.23;;;4.17;;
25435;SDS011;13363;52.772;-3.890;2023-07-31T08:16:23;15.77;;;4.70;;
25435;SDS011;13363;52.772;-3.890;2023-07-31T08:18:49;16.60;;;5.27;;
25435;SDS011;13363;52.772;-3.890;2023-07-31T08:21:15;14.20;;;4.73;;
25435;SDS011;13363;52.772;-3.890;2023-07-31T08:23:41;18.43;;;4.63;;
25435;SDS011;13363;52.772;-3.890;2023-07-31T08:26:07;15.43;;;5.43;;
25435;SDS011;13363;52.772;-3.890;2023-07-31T08:28:33;15.90;;;4.67;;
25435;SDS011;13363;52.772;-3.890;2023-07-31T08:31:00;12.60;;;4.70;;
25435;SDS011;13363;52.772;-3.890;2023-07-31T08:33:25;17.73;;;5.33;;
25435;SDS011;13363;52.772;-3.890;2023-07-31T08:35:51;17.40;;;5.13;;
25435;SDS011;13363;52.772;-3.890;2023-07-31T08:38:17;13.57;;;4.37;;
25435;SDS011;13363;52.772;-3.890;2023-07-31T08:40:43;13.90;;;5.20;;
25435;SDS011;13363;52.772;-3.890;2023-07-31T08:43:09;18.97;;;5.00;;
25435;SDS011;13363;52.772;-3.890;2023-07-31T08:45:35;13.10;;;4.30;;
25435;SDS011;13363;52.772;-3.890;2023-07-31T08:48:00;18.80;;;5.57;;
25435;SDS011;13363;52.772;-3.890;2023-07-31T08:50:26;18.87;;;4.70;;
25435;SDS011;13363;52.772;-3.890;2023-07-31T08:52:53;16.97;;;4.57;;
25435;SDS011;13363;52.772;-3.890;2023-07-31T08:55:19;13.83;;;4.50;;
25435;SDS011;13363;52.772;-3.890;2023-07-31T08:57:50;21.47;;;5.43;;
25435;SDS011;13363;52.772;-3.890;2023-07-31T09:00:18;21.60;;;5.03;;
25435;SDS011;13363;52.772;-3.890;2023-07-31T09:02:54;17.73;;;5.07;;
25435;SDS011;13363;52.772;-3.890;2023-07-31T09:05:30;17.47;;;5.37;;
25435;SDS011;13363;52.772;-3.890;2023-07-31T09:07:57;14.67;;;4.77;;
25435;SDS011;13363;52.772;-3.890;2023-07-31T09:10:23;16.73;;;5.50;;
25435;SDS011;13363;52.772;-3.890;2023-07-31T09:12:52;15.27;;;5.13;;
25435;SDS011;13363;52.772;-3.890;2023-07-31T09:15:18;17.57;;;5.27;;
25435;SDS011;13363;52.772;-3.890;2023-07-31T09:17:46;16.63;;;5.47;;
25435;SDS011;13363;52.772;-3.890;2023-07-31T09:22:40;19.57;;;5.13;;
25435;SDS011;13363;52.772;-3.890;2023-07-31T09:25:21;17.70;;;5.20;;
25435;SDS011;13363;52.772;-3.890;2023-07-31T09:27:49;10.03;;;4.00;;
25435;SDS011;13363;52.772;-3.890;2023-07-31T09:33:30;16.43;;;5.03;;
25435;SDS011;13363;52.772;-3.890;2023-07-31T09:35:58;13.67;;;4.53;;
25435;SDS011;13363;52.772;-3.890;2023-07-31T09:38:25;9.77;;;4.27;;
25435;SDS011;13363;52.772;-3.890;2023-07-31T09:40:51;16.50;;;4.70;;
25435;SDS011;13363;52.772;-3.890;2023-07-31T09:43:18;9.97;;;4.10;;
25435;SDS011;13363;52.772;-3.890;2023-07-31T09:45:46;20.53;;;5.50;;
25435;SDS011;13363;52.772;-3.890;2023-07-31T09:48:12;13.10;;;5.17;;
25435;SDS011;13363;52.772;-3.890;2023-07-31T09:50:42;20.90;;;4.77;;
25435;SDS011;13363;52.772;-3.890;2023-07-31T09:53:09;13.50;;;5.10;;
25435;SDS011;13363;52.772;-3.890;2023-07-31T09:55:36;20.13;;;5.17;;
25435;SDS011;13363;52.772;-3.890;2023-07-31T09:58:06;17.10;;;4.83;;
25435;SDS011;13363;52.772;-3.890;2023-07-31T10:00:33;17.80;;;5.00;;
25435;SDS011;13363;52.772;-3.890;2023-07-31T10:03:00;13.90;;;5.13;;
25435;SDS011;13363;52.772;-3.890;2023-07-31T10:05:31;22.30;;;5.20;;
25435;SDS011;13363;52.772;-3.890;2023-07-31T10:08:01;9.73;;;4.40;;
25435;SDS011;13363;52.772;-3.890;2023-07-31T10:10:28;16.67;;;5.13;;
25435;SDS011;13363;52.772;-3.890;2023-07-31T10:12:56;16.40;;;4.77;;
25435;SDS011;13363;52.772;-3.890;2023-07-31T10:15:22;8.17;;;3.80;;
25435;SDS011;13363;52.772;-3.890;2023-07-31T10:17:49;10.33;;;3.93;;
25435;SDS011;13363;52.772;-3.890;2023-07-31T10:20:17;16.90;;;5.57;;
25435;SDS011;13363;52.772;-3.890;2023-07-31T10:22:43;17.10;;;4.87;;
25435;SDS011;13363;52.772;-3.890;2023-07-31T10:25:11;19.87;;;4.73;;
25435;SDS011;13363;52.772;-3.890;2023-07-31T10:27:38;12.33;;;5.30;;
25435;SDS011;13363;52.772;-3.890;2023-07-31T10:30:08;11.93;;;4.23;;
25435;SDS011;13363;52.772;-3.890;2023-07-31T10:32:40;7.87;;;3.17;;
25435;SDS011;13363;52.772;-3.890;2023-07-31T10:35:08;14.57;;;4.77;;
25435;SDS011;13363;52.772;-3.890;2023-07-31T10:40:06;13.80;;;3.37;;
25435;SDS011;13363;52.772;-3.890;2023-07-31T10:42:33;15.70;;;4.97;;
25435;SDS011;13363;52.772;-3.890;2023-07-31T10:45:05;6.03;;;2.77;;
25435;SDS011;13363;52.772;-3.890;2023-07-31T10:52:45;9.40;;;3.63;;
25435;SDS011;13363;52.772;-3.890;2023-07-31T10:57:57;13.53;;;4.17;;
25435;SDS011;13363;52.772;-3.890;2023-07-31T11:00:31;9.23;;;3.57;;
25435;SDS011;13363;52.772;-3.890;2023-07-31T11:02:58;14.67;;;4.40;;
25435;SDS011;13363;52.772;-3.890;2023-07-31T11:08:35;6.50;;;2.67;;
25435;SDS011;13363;52.772;-3.890;2023-07-31T11:11:07;11.80;;;2.90;;
25435;SDS011;13363;52.772;-3.890;2023-07-31T11:13:41;11.97;;;4.17;;
25435;SDS011;13363;52.772;-3.890;2023-07-31T11:16:09;11.97;;;4.00;;
25435;SDS011;13363;52.772;-3.890;2023-07-31T11:18:38;11.73;;;4.17;;
25435;SDS011;13363;52.772;-3.890;2023-07-31T11:21:05;11.77;;;4.37;;
25435;SDS011;13363;52.772;-3.890;2023-07-31T11:23:31;18.77;;;4.70;;
25435;SDS011;13363;52.772;-3.890;2023-07-31T11:26:00;12.33;;;4.60;;
25435;SDS011;13363;52.772;-3.890;2023-07-31T11:28:30;14.40;;;4.97;;
25435;SDS011;13363;52.772;-3.890;2023-07-31T11:30:58;11.53;;;4.90;;
25435;SDS011;13363;52.772;-3.890;2023-07-31T11:33:24;17.80;;;4.80;;
25435;SDS011;13363;52.772;-3.890;2023-07-31T11:35:50;15.80;;;4.57;;
25435;SDS011;13363;52.772;-3.890;2023-07-31T11:38:27;19.03;;;4.53;;
25435;SDS011;13363;52.772;-3.890;2023-07-31T11:40:58;9.57;;;3.93;;
25435;SDS011;13363;52.772;-3.890;2023-07-31T11:43:27;15.73;;;4.60;;
25435;SDS011;13363;52.772;-3.890;2023-07-31T11:45:56;11.77;;;4.13;;
25435;SDS011;13363;52.772;-3.890;2023-07-31T11:48:29;12.60;;;3.60;;
25435;SDS011;13363;52.772;-3.890;2023-07-31T11:50:59;16.40;;;4.50;;
25435;SDS011;13363;52.772;-3.890;2023-07-31T11:53:27;15.33;;;4.07;;
25435;SDS011;13363;52.772;-3.890;2023-07-31T11:55:54;10.53;;;3.57;;
25435;SDS011;13363;52.772;-3.890;2023-07-31T11:58:23;9.00;;;4.20;;
25435;SDS011;13363;52.772;-3.890;2023-07-31T12:00:49;9.47;;;4.07;;
25435;SDS011;13363;52.772;-3.890;2023-07-31T12:03:15;8.47;;;3.50;;
25435;SDS011;13363;52.772;-3.890;2023-07-31T12:05:41;9.40;;;3.37;;
25435;SDS011;13363;52.772;-3.890;2023-07-31T12:08:10;9.77;;;3.37;;
25435;SDS011;13363;52.772;-3.890;2023-07-31T12:10:37;7.73;;;3.53;;
25435;SDS011;13363;52.772;-3.890;2023-07-31T12:13:07;11.30;;;3.37;;
25435;SDS011;13363;52.772;-3.890;2023-07-31T12:15:43;11.47;;;3.70;;
25435;SDS011;13363;52.772;-3.890;2023-07-31T12:18:13;5.50;;;3.37;;
25435;SDS011;13363;52.772;-3.890;2023-07-31T12:20:43;10.20;;;3.40;;
25435;SDS011;13363;52.772;-3.890;2023-07-31T12:23:17;6.30;;;3.27;;
25435;SDS011;13363;52.772;-3.890;2023-07-31T12:25:44;10.97;;;2.93;;
25435;SDS011;13363;52.772;-3.890;2023-07-31T12:28:10;9.63;;;3.83;;
25435;SDS011;13363;52.772;-3.890;2023-07-31T12:30:39;8.87;;;3.60;;
25435;SDS011;13363;52.772;-3.890;2023-07-31T12:33:07;11.03;;;4.00;;
25435;SDS011;13363;52.772;-3.890;2023-07-31T12:35:44;7.93;;;3.30;;
25435;SDS011;13363;52.772;-3.890;2023-07-31T12:38:12;7.30;;;3.20;;
25435;SDS011;13363;52.772;-3.890;2023-07-31T12:40:39;9.27;;;3.80;;
25435;SDS011;13363;52.772;-3.890;2023-07-31T12:43:06;9.90;;;3.13;;
25435;SDS011;13363;52.772;-3.890;2023-07-31T12:45:32;10.90;;;3.67;;
25435;SDS011;13363;52.772;-3.890;2023-07-31T12:47:59;10.33;;;3.43;;
25435;SDS011;13363;52.772;-3.890;2023-07-31T12:50:25;8.23;;;3.63;;
25435;SDS011;13363;52.772;-3.890;2023-07-31T12:52:53;9.93;;;3.13;;
25435;SDS011;13363;52.772;-3.890;2023-07-31T12:55:19;10.17;;;3.87;;
25435;SDS011;13363;52.772;-3.890;2023-07-31T12:57:46;4.63;;;2.63;;
25435;SDS011;13363;52.772;-3.890;2023-07-31T13:00:12;10.27;;;3.57;;
25435;SDS011;13363;52.772;-3.890;2023-07-31T13:02:38;10.87;;;3.73;;
25435;SDS011;13363;52.772;-3.890;2023-07-31T13:05:04;8.33;;;2.87;;
25435;SDS011;13363;52.772;-3.890;2023-07-31T13:07:30;12.10;;;3.47;;
25435;SDS011;13363;52.772;-3.890;2023-07-31T13:09:56;7.27;;;3.70;;
25435;SDS011;13363;52.772;-3.890;2023-07-31T13:12:22;6.87;;;3.30;;
25435;SDS011;13363;52.772;-3.890;2023-07-31T13:14:48;10.77;;;3.87;;
25435;SDS011;13363;52.772;-3.890;2023-07-31T13:17:15;11.53;;;3.57;;
25435;SDS011;13363;52.772;-3.890;2023-07-31T13:19:40;12.10;;;3.77;;
25435;SDS011;13363;52.772;-3.890;2023-07-31T13:22:07;9.80;;;4.03;;
25435;SDS011;13363;52.772;-3.890;2023-07-31T13:24:33;9.90;;;4.20;;
25435;SDS011;13363;52.772;-3.890;2023-07-31T13:26:59;7.17;;;3.07;;
25435;SDS011;13363;52.772;-3.890;2023-07-31T13:29:25;6.10;;;2.97;;
25435;SDS011;13363;52.772;-3.890;2023-07-31T13:31:52;10.83;;;3.43;;
25435;SDS011;13363;52.772;-3.890;2023-07-31T13:34:19;15.13;;;4.23;;
25435;SDS011;13363;52.772;-3.890;2023-07-31T13:36:50;9.13;;;3.80;;
25435;SDS011;13363;52.772;-3.890;2023-07-31T13:39:21;14.20;;;4.13;;
25435;SDS011;13363;52.772;-3.890;2023-07-31T13:41:47;15.30;;;4.07;;
25435;SDS011;13363;52.772;-3.890;2023-07-31T13:44:13;10.63;;;3.40;;
25435;SDS011;13363;52.772;-3.890;2023-07-31T13:46:39;10.97;;;3.87;;
25435;SDS011;13363;52.772;-3.890;2023-07-31T13:49:05;10.57;;;3.47;;
25435;SDS011;13363;52.772;-3.890;2023-07-31T13:51:31;12.00;;;4.20;;
25435;SDS011;13363;52.772;-3.890;2023-07-31T13:53:57;11.67;;;3.57;;
25435;SDS011;13363;52.772;-3.890;2023-07-31T13:56:23;13.37;;;3.83;;
25435;SDS011;13363;52.772;-3.890;2023-07-31T13:58:49;8.13;;;3.37;;
25435;SDS011;13363;52.772;-3.890;2023-07-31T14:01:14;10.80;;;3.73;;
25435;SDS011;13363;52.772;-3.890;2023-07-31T14:03:40;9.33;;;2.90;;
25435;SDS011;13363;52.772;-3.890;2023-07-31T14:06:06;9.97;;;3.60;;
25435;SDS011;13363;52.772;-3.890;2023-07-31T14:08:32;7.57;;;3.47;;
25435;SDS011;13363;52.772;-3.890;2023-07-31T14:10:58;15.23;;;4.97;;
25435;SDS011;13363;52.772;-3.890;2023-07-31T14:13:24;13.60;;;4.50;;
25435;SDS011;13363;52.772;-3.890;2023-07-31T14:15:50;16.77;;;4.20;;
25435;SDS011;13363;52.772;-3.890;2023-07-31T14:18:16;11.20;;;4.10;;
25435;SDS011;13363;52.772;-3.890;2023-07-31T14:20:42;19.57;;;4.20;;
25435;SDS011;13363;52.772;-3.890;2023-07-31T14:23:08;17.03;;;4.50;;
25435;SDS011;13363;52.772;-3.890;2023-07-31T14:25:34;19.17;;;5.07;;
25435;SDS011;13363;52.772;-3.890;2023-07-31T14:28:00;15.07;;;3.90;;
25435;SDS011;13363;52.772;-3.890;2023-07-31T14:30:28;12.80;;;4.37;;
25435;SDS011;13363;52.772;-3.890;2023-07-31T14:32:54;12.07;;;4.30;;
25435;SDS011;13363;52.772;-3.890;2023-07-31T14:35:20;18.47;;;4.80;;
25435;SDS011;13363;52.772;-3.890;2023-07-31T14:37:45;12.17;;;3.97;;
25435;SDS011;13363;52.772;-3.890;2023-07-31T14:40:12;10.93;;;4.73;;
25435;SDS011;13363;52.772;-3.890;2023-07-31T14:42:38;12.47;;;4.23;;
25435;SDS011;13363;52.772;-3.890;2023-07-31T14:45:05;19.20;;;4.97;;
25435;SDS011;13363;52.772;-3.890;2023-07-31T14:47:32;16.83;;;4.30;;
25435;SDS011;13363;52.772;-3.890;2023-07-31T14:49:58;10.93;;;4.50;;
25435;SDS011;13363;52.772;-3.890;2023-07-31T14:52:25;11.10;;;3.57;;
25435;SDS011;13363;52.772;-3.890;2023-07-31T14:54:51;14.97;;;4.47;;